Terminal Aerodrome Forecast
Issued by NWS Mt. Holly, NJ

Home | Current Version | Previous Version | Text Only | Print | Product List | Glossary On
Versions: 1 2 3 4 5 6 7 8 9 10 11 12 13 14 15 16 17 18 19 20 21 22 23 24 25 26 27 28 29 30
000
FTUS41 KPHI 240540
TAFPHL
TAF
KPHL 240540Z 2406/2512 VRB02KT 1SM BR OVC002
     FM240900 VRB03KT 1/2SM FG BKN003
     FM241100 23004KT 1 1/2SM BR BKN005
     FM241300 23004KT P6SM BKN012
     FM241530 24004KT P6SM BKN035
     FM241600 25008G16KT P6SM BKN060 PROB30 2420/2424 5SM -SHRA
     FM250000 27009KT P6SM BKN120
     FM250800 33008KT P6SM SCT250=

USA.gov is the U.S. government's official web portal to all federal, state and local government web resources and services.